Lenox, Missouri
Current Conditions -  °F | °C
As of 9:58 PM on Friday 24 Oct 2014 (Local Time) from KTBN Reporting Station
Clear Clear  
Wind Chill: 64°   Ceiling: Unl
Heat Index: 64°   Visibility: 10mi
Dew Point: 60°   Wind: 7mph
Humidity: 86%   Direction: NA
Pressure: 30.04"   Gusts: NA
Location:  37.65°N, 91.76°W
Report Text: KTBN 250258Z AUTO VRB06KT 10SM CLR 18/15 A3004 RMK AO2 SLP171 T01770154 52004
Loading
Personal Weather Stations






























Interactive Weather Map
Tropical Storm Tracking
New forecast layout! Learn more

10-Day Weather Forecast

Advertisements
Track Severe Weather on mobile